createdAt,value
2018-06-11T00:01:39.534Z,8.17
2018-06-11T00:04:07.821Z,8.23
2018-06-11T00:06:36.119Z,8.70
2018-06-11T00:09:07.175Z,7.80
2018-06-11T00:11:35.864Z,9.37
2018-06-11T00:14:04.250Z,9.50
2018-06-11T00:16:33.093Z,11.10
2018-06-11T00:19:01.410Z,8.57
2018-06-11T00:21:29.774Z,10.03
2018-06-11T00:23:58.058Z,9.37
2018-06-11T00:26:26.366Z,10.93
2018-06-11T00:28:54.667Z,13.17
2018-06-11T00:31:22.961Z,10.07
2018-06-11T00:33:51.237Z,8.80
2018-06-11T00:36:19.527Z,9.17
2018-06-11T00:38:47.821Z,9.93
2018-06-11T00:41:16.118Z,10.50
2018-06-11T00:43:44.433Z,10.97
2018-06-11T00:46:12.724Z,11.70
2018-06-11T00:48:41.019Z,14.87
2018-06-11T00:51:09.340Z,15.93
2018-06-11T00:53:37.670Z,14.33
2018-06-11T00:56:08.284Z,13.67
2018-06-11T00:58:36.625Z,14.20
2018-06-11T01:01:05.367Z,13.17
2018-06-11T01:03:33.753Z,9.73
2018-06-11T01:06:02.097Z,9.67
2018-06-11T01:08:30.128Z,10.57
2018-06-11T01:10:58.884Z,9.77
2018-06-11T01:13:27.217Z,10.77
2018-06-11T01:15:55.522Z,11.10
2018-06-11T01:18:23.808Z,9.23
2018-06-11T01:20:52.128Z,9.70
2018-06-11T01:23:20.447Z,9.03
2018-06-11T01:25:48.750Z,9.80
2018-06-11T01:28:17.062Z,9.97
2018-06-11T01:30:45.337Z,9.57
2018-06-11T01:33:13.653Z,12.17
2018-06-11T01:35:41.962Z,9.00
2018-06-11T01:38:11.018Z,8.63
2018-06-11T01:40:39.340Z,8.87
2018-06-11T01:43:07.665Z,9.97
2018-06-11T01:45:35.955Z,8.23
2018-06-11T01:48:04.286Z,9.70
2018-06-11T01:50:32.589Z,9.00
2018-06-11T01:53:01.545Z,9.27
2018-06-11T01:55:29.833Z,8.77
2018-06-11T01:57:58.174Z,8.17
2018-06-11T02:00:26.457Z,8.07
2018-06-11T02:02:54.740Z,10.83
2018-06-11T02:05:23.043Z,8.50
2018-06-11T02:07:51.341Z,8.67
2018-06-11T02:10:19.396Z,7.63
2018-06-11T02:12:50.681Z,9.83
2018-06-11T02:15:19.017Z,7.40
2018-06-11T02:17:47.300Z,8.27
2018-06-11T02:20:15.604Z,7.97
2018-06-11T02:22:43.874Z,8.27
2018-06-11T02:25:12.191Z,8.07
2018-06-11T02:27:47.102Z,8.00
2018-06-11T02:30:15.432Z,7.70
2018-06-11T02:32:50.130Z,7.57
2018-06-11T02:35:18.441Z,7.60
2018-06-11T02:37:46.750Z,8.23
2018-06-11T02:40:15.047Z,8.17
2018-06-11T02:42:43.350Z,8.83
2018-06-11T02:45:11.715Z,10.80
2018-06-11T02:47:40.038Z,8.47
2018-06-11T02:50:08.328Z,8.33
2018-06-11T02:52:36.373Z,7.67
2018-06-11T02:55:04.756Z,8.33
2018-06-11T02:57:33.671Z,8.80
2018-06-11T03:00:02.000Z,9.47
2018-06-11T03:02:30.303Z,9.20
2018-06-11T03:04:58.600Z,8.63
2018-06-11T03:07:26.890Z,9.63
2018-06-11T03:09:55.179Z,8.20
2018-06-11T03:12:23.489Z,7.53
2018-06-11T03:14:51.784Z,8.00
2018-06-11T03:17:20.130Z,7.57
2018-06-11T03:19:48.454Z,7.17
2018-06-11T03:22:16.747Z,11.53
2018-06-11T03:24:45.105Z,7.90
2018-06-11T03:27:13.425Z,7.70
2018-06-11T03:29:41.705Z,9.87
2018-06-11T03:32:09.998Z,8.13
2018-06-11T03:34:38.308Z,7.10
2018-06-11T03:37:06.613Z,7.97
2018-06-11T03:39:34.889Z,8.10
2018-06-11T03:42:03.197Z,7.60
2018-06-11T03:44:31.510Z,7.47
2018-06-11T03:46:59.785Z,9.37
2018-06-11T03:49:28.073Z,7.53
2018-06-11T03:51:56.395Z,8.93
2018-06-11T03:54:24.713Z,7.90
2018-06-11T03:56:53.028Z,8.93
2018-06-11T03:59:21.344Z,7.90
2018-06-11T04:01:49.637Z,8.00
2018-06-11T04:04:17.940Z,7.80
2018-06-11T04:06:46.254Z,7.17
2018-06-11T04:09:14.545Z,7.37
2018-06-11T04:11:42.850Z,8.23
2018-06-11T04:14:11.166Z,8.20
2018-06-11T04:16:39.482Z,7.30
2018-06-11T04:19:07.920Z,10.47
2018-06-11T04:21:36.206Z,7.63
2018-06-11T04:24:04.827Z,7.33
2018-06-11T04:26:33.129Z,7.20
2018-06-11T04:29:01.459Z,6.67
2018-06-11T04:31:29.790Z,6.43
2018-06-11T04:33:58.090Z,6.37
2018-06-11T04:36:26.395Z,6.40
2018-06-11T04:38:54.700Z,7.70
2018-06-11T04:41:23.020Z,6.57
2018-06-11T04:43:51.335Z,7.27
2018-06-11T04:46:19.626Z,7.00
2018-06-11T04:48:47.926Z,8.67
2018-06-11T04:51:16.265Z,6.27
2018-06-11T04:53:44.542Z,6.50
2018-06-11T04:56:12.837Z,9.17
2018-06-11T04:58:41.117Z,6.83
2018-06-11T05:01:09.420Z,6.70
2018-06-11T05:03:37.731Z,6.27
2018-06-11T05:06:06.018Z,6.23
2018-06-11T05:08:34.285Z,6.10
2018-06-11T05:11:02.582Z,6.20
2018-06-11T05:13:30.894Z,7.40
2018-06-11T05:15:59.206Z,5.93
2018-06-11T05:18:27.465Z,6.57
2018-06-11T05:20:55.489Z,6.43
2018-06-11T05:23:23.761Z,5.87
2018-06-11T05:25:52.047Z,6.60
2018-06-11T05:28:20.361Z,5.70
2018-06-11T05:30:48.652Z,7.20
2018-06-11T05:33:16.971Z,5.33
2018-06-11T05:35:45.294Z,6.47
2018-06-11T05:38:13.612Z,6.40
2018-06-11T05:40:41.900Z,6.37
2018-06-11T05:43:10.197Z,5.60
2018-06-11T05:45:38.474Z,5.80
2018-06-11T05:48:06.813Z,6.23
2018-06-11T05:50:35.115Z,5.67
2018-06-11T05:53:03.432Z,6.13
2018-06-11T05:55:31.721Z,5.10
2018-06-11T05:58:00.032Z,5.13
2018-06-11T06:00:28.321Z,4.83
2018-06-11T06:02:56.625Z,6.33
2018-06-11T06:05:24.926Z,5.47
2018-06-11T06:07:53.214Z,5.93
2018-06-11T06:10:21.489Z,5.50
2018-06-11T06:12:49.791Z,6.93
2018-06-11T06:15:18.080Z,6.67
2018-06-11T06:17:46.390Z,6.27
2018-06-11T06:20:14.685Z,5.97
2018-06-11T06:22:42.960Z,5.33
2018-06-11T06:25:11.238Z,5.27
2018-06-11T06:27:39.551Z,6.10
2018-06-11T06:30:08.363Z,5.57
2018-06-11T06:32:37.015Z,7.33
2018-06-11T06:35:05.753Z,5.33
2018-06-11T06:37:34.154Z,5.00
2018-06-11T06:40:02.488Z,6.27
2018-06-11T06:42:30.814Z,6.23
2018-06-11T06:44:59.104Z,5.20
2018-06-11T06:47:27.379Z,5.87
2018-06-11T06:49:55.681Z,5.13
2018-06-11T06:52:23.973Z,6.60
2018-06-11T06:54:52.269Z,5.80
2018-06-11T06:57:20.671Z,6.53
2018-06-11T06:59:48.934Z,6.27
2018-06-11T07:02:17.210Z,5.00
2018-06-11T07:04:45.494Z,4.97
2018-06-11T07:07:13.779Z,6.57
2018-06-11T07:09:42.140Z,5.13
2018-06-11T07:12:10.404Z,11.30
2018-06-11T07:14:38.715Z,6.73
2018-06-11T07:17:07.013Z,4.70
2018-06-11T07:19:35.310Z,5.70
2018-06-11T07:22:03.626Z,4.53
2018-06-11T07:24:31.921Z,7.33
2018-06-11T07:27:00.221Z,6.17
2018-06-11T07:29:28.536Z,5.27
2018-06-11T07:31:56.807Z,6.10
2018-06-11T07:34:25.109Z,4.53
2018-06-11T07:36:53.523Z,5.10
2018-06-11T07:39:21.812Z,4.37
2018-06-11T07:41:50.084Z,6.03
2018-06-11T07:44:18.413Z,6.10
2018-06-11T07:46:46.740Z,6.10
2018-06-11T07:49:15.013Z,6.33
2018-06-11T07:51:43.390Z,7.23
2018-06-11T07:54:11.630Z,6.40
2018-06-11T07:56:39.922Z,5.30
2018-06-11T07:59:08.234Z,5.50
2018-06-11T08:01:36.537Z,5.50
2018-06-11T08:04:04.833Z,4.87
2018-06-11T08:06:33.166Z,6.23
2018-06-11T08:09:01.454Z,4.40
2018-06-11T08:11:29.742Z,4.30
2018-06-11T08:13:58.042Z,7.83
2018-06-11T08:16:26.346Z,9.43
2018-06-11T08:18:54.635Z,10.90
2018-06-11T08:21:22.916Z,8.47
2018-06-11T08:23:51.201Z,6.63
2018-06-11T08:26:19.482Z,5.77
2018-06-11T08:28:47.779Z,5.07
2018-06-11T08:31:16.096Z,5.27
2018-06-11T08:33:44.360Z,5.50
2018-06-11T08:36:12.654Z,9.83
2018-06-11T08:38:40.946Z,4.50
2018-06-11T08:41:09.247Z,6.13
2018-06-11T08:43:38.218Z,6.47
2018-06-11T08:46:06.527Z,6.50
2018-06-11T08:48:34.808Z,6.10
2018-06-11T08:51:03.123Z,4.80
2018-06-11T08:53:31.418Z,6.30
2018-06-11T08:55:59.857Z,5.90
2018-06-11T08:58:28.340Z,5.40
2018-06-11T09:00:56.656Z,8.13
2018-06-11T09:03:24.964Z,8.27
2018-06-11T09:05:53.251Z,6.10
2018-06-11T09:08:21.554Z,5.57
2018-06-11T09:10:50.017Z,5.70
2018-06-11T09:13:18.289Z,6.27
2018-06-11T09:15:46.581Z,9.20
2018-06-11T09:18:15.067Z,7.93
2018-06-11T09:20:43.280Z,5.37
2018-06-11T09:23:11.571Z,6.50
2018-06-11T09:25:39.861Z,9.50
2018-06-11T09:28:08.154Z,6.57
2018-06-11T09:30:36.437Z,6.53
2018-06-11T09:33:04.722Z,8.57
2018-06-11T09:35:33.027Z,9.03
2018-06-11T09:38:01.316Z,35.83
2018-06-11T09:40:29.651Z,8.67
2018-06-11T09:42:57.998Z,7.20
2018-06-11T09:45:26.313Z,7.20
2018-06-11T09:47:54.597Z,5.53
2018-06-11T09:50:22.882Z,10.00
2018-06-11T09:52:51.167Z,9.70
2018-06-11T09:55:19.795Z,8.53
2018-06-11T09:57:48.114Z,7.23
2018-06-11T10:00:21.808Z,6.83
2018-06-11T10:02:50.092Z,10.33
2018-06-11T10:05:18.380Z,6.70
2018-06-11T10:07:46.738Z,10.17
2018-06-11T10:10:15.079Z,7.50
2018-06-11T10:12:43.388Z,9.57
2018-06-11T10:15:11.697Z,8.23
2018-06-11T10:17:40.022Z,11.53
2018-06-11T10:20:08.301Z,9.77
2018-06-11T10:22:36.589Z,8.03
2018-06-11T10:25:05.074Z,8.23
2018-06-11T10:27:33.478Z,10.47
2018-06-11T10:30:01.760Z,9.33
2018-06-11T10:32:30.411Z,8.93
2018-06-11T10:34:58.682Z,9.77
2018-06-11T10:37:26.977Z,10.03
2018-06-11T10:39:55.300Z,9.43
2018-06-11T10:42:23.585Z,10.60
2018-06-11T10:44:52.026Z,9.23
2018-06-11T10:47:20.555Z,11.03
2018-06-11T10:49:48.841Z,10.37
2018-06-11T10:52:17.123Z,11.47
2018-06-11T10:54:45.586Z,13.47
2018-06-11T10:57:13.898Z,13.67
2018-06-11T10:59:42.186Z,12.40
2018-06-11T11:02:10.465Z,9.80
2018-06-11T11:04:38.803Z,11.97
2018-06-11T11:07:07.060Z,10.47
2018-06-11T11:09:35.585Z,11.37
2018-06-11T11:12:04.166Z,11.77
2018-06-11T11:14:32.475Z,9.03
2018-06-11T11:17:00.784Z,13.40
2018-06-11T11:19:29.073Z,10.10
2018-06-11T11:21:57.614Z,13.40
2018-06-11T11:24:25.884Z,10.97
2018-06-11T11:26:54.468Z,9.97
2018-06-11T11:29:23.109Z,13.13
2018-06-11T11:31:51.425Z,16.47
2018-06-11T11:34:19.869Z,15.67
2018-06-11T11:36:48.165Z,12.23
2018-06-11T11:39:16.463Z,11.97
2018-06-11T11:41:44.761Z,16.17
2018-06-11T11:44:13.053Z,14.07
2018-06-11T11:46:41.341Z,15.73
2018-06-11T11:49:09.641Z,16.40
2018-06-11T11:51:37.970Z,15.13
2018-06-11T11:54:06.452Z,11.00
2018-06-11T11:56:34.728Z,14.43
2018-06-11T11:59:03.055Z,14.17
2018-06-11T12:01:31.582Z,14.23
2018-06-11T12:04:00.298Z,15.70
2018-06-11T12:06:28.697Z,17.70
2018-06-11T12:08:57.012Z,16.43
2018-06-11T12:11:25.314Z,18.03
2018-06-11T12:13:53.647Z,15.60
2018-06-11T12:16:21.946Z,15.97
2018-06-11T12:18:50.248Z,17.63
2018-06-11T12:21:18.545Z,18.23
2018-06-11T12:23:46.870Z,17.77
2018-06-11T12:26:14.977Z,15.30
2018-06-11T12:28:43.455Z,19.73
2018-06-11T12:31:11.741Z,23.63
2018-06-11T12:33:40.033Z,15.53
2018-06-11T12:36:08.356Z,21.17
2018-06-11T12:38:36.829Z,17.37
2018-06-11T12:41:05.218Z,17.30
2018-06-11T12:43:33.550Z,19.00
2018-06-11T12:46:01.864Z,18.73
2018-06-11T12:48:30.220Z,19.27
2018-06-11T12:50:58.510Z,17.97
2018-06-11T12:53:26.950Z,15.57
2018-06-11T12:55:55.297Z,19.27
2018-06-11T12:58:23.622Z,18.17
2018-06-11T13:00:51.998Z,21.90
2018-06-11T13:03:20.298Z,22.57
2018-06-11T13:05:48.717Z,14.50
2018-06-11T13:08:17.015Z,16.33
2018-06-11T13:10:45.632Z,16.97
2018-06-11T13:13:14.241Z,15.13
2018-06-11T13:15:42.538Z,13.53
2018-06-11T13:18:11.016Z,15.43
2018-06-11T13:20:39.298Z,15.03
2018-06-11T13:23:07.748Z,17.43
2018-06-11T13:25:36.257Z,13.67
2018-06-11T13:28:04.561Z,15.67
2018-06-11T13:30:33.181Z,12.30
2018-06-11T13:33:01.430Z,14.37
2018-06-11T13:35:29.801Z,15.97
2018-06-11T13:37:58.092Z,18.87
2018-06-11T13:40:26.495Z,17.43
2018-06-11T13:42:54.895Z,13.93
2018-06-11T13:45:23.182Z,16.77
2018-06-11T13:47:51.494Z,12.77
2018-06-11T13:50:19.853Z,19.33
2018-06-11T13:52:48.086Z,20.80
2018-06-11T13:55:16.616Z,16.83
2018-06-11T13:57:44.909Z,15.47
2018-06-11T14:00:13.313Z,20.87
2018-06-11T14:02:41.924Z,20.50
2018-06-11T14:05:10.265Z,16.67
2018-06-11T14:07:38.559Z,18.13
2018-06-11T14:10:06.866Z,15.30
2018-06-11T14:12:35.166Z,18.20
2018-06-11T14:15:03.486Z,12.87
2018-06-11T14:17:31.890Z,20.87
2018-06-11T14:20:00.442Z,16.57
2018-06-11T14:22:28.749Z,14.27
2018-06-11T14:24:57.030Z,18.73
2018-06-11T14:27:25.353Z,16.43
2018-06-11T14:29:53.639Z,17.30
2018-06-11T14:32:21.929Z,14.50
2018-06-11T14:34:50.223Z,18.73
2018-06-11T14:37:18.526Z,16.80
2018-06-11T14:39:46.805Z,13.80
2018-06-11T14:42:15.367Z,15.53
2018-06-11T14:44:43.818Z,10.00
2018-06-11T14:47:12.107Z,12.00
2018-06-11T14:49:40.608Z,19.17
2018-06-11T14:52:08.933Z,13.57
2018-06-11T14:54:37.226Z,12.90
2018-06-11T14:57:05.508Z,16.47
2018-06-11T14:59:33.787Z,10.57
2018-06-11T15:02:02.098Z,10.00
2018-06-11T15:04:30.760Z,9.97
2018-06-11T15:06:58.760Z,12.50
2018-06-11T15:43:36.084Z,12.77
2018-06-11T15:46:04.145Z,15.10
2018-06-11T15:48:32.319Z,11.83
2018-06-11T15:51:00.742Z,15.27
2018-06-11T16:06:04.330Z,9.83
2018-06-11T16:08:32.686Z,14.83
2018-06-11T16:11:01.027Z,20.40
2018-06-11T16:13:29.340Z,16.53
2018-06-11T16:15:57.645Z,12.20
2018-06-11T16:18:26.006Z,12.57
2018-06-11T16:20:54.301Z,12.47
2018-06-11T16:23:22.618Z,15.27
2018-06-11T16:25:50.968Z,14.83
2018-06-11T16:28:19.317Z,15.63
2018-06-11T16:30:47.632Z,12.63
2018-06-11T16:33:15.948Z,15.63
2018-06-11T16:35:44.257Z,17.60
2018-06-11T16:38:12.578Z,15.67
2018-06-11T16:40:40.877Z,13.37
2018-06-11T16:43:09.181Z,16.67
2018-06-11T16:45:37.503Z,15.13
2018-06-11T16:48:05.956Z,14.27
2018-06-11T16:50:34.273Z,18.87
2018-06-11T16:53:02.565Z,20.87
2018-06-11T16:55:30.901Z,18.17
2018-06-11T16:57:59.251Z,17.40
2018-06-11T17:00:28.242Z,15.70
2018-06-11T17:02:56.738Z,13.77
2018-06-11T17:05:25.037Z,13.37
2018-06-11T17:07:53.340Z,19.67
2018-06-11T17:10:21.664Z,14.87
2018-06-11T17:12:50.026Z,16.27
2018-06-11T17:15:18.337Z,14.37
2018-06-11T17:17:46.689Z,14.37
2018-06-11T17:20:15.646Z,16.70
2018-06-11T17:22:44.497Z,14.03
2018-06-11T17:25:13.078Z,11.90
2018-06-11T17:27:41.393Z,14.50
2018-06-11T17:30:09.733Z,14.97
2018-06-11T17:32:38.054Z,14.63
2018-06-11T17:35:06.345Z,14.73
2018-06-11T17:37:34.661Z,19.37
2018-06-11T17:40:03.385Z,18.37
2018-06-11T17:42:31.714Z,16.77
2018-06-11T17:45:00.027Z,16.63
2018-06-11T17:47:28.345Z,20.23
2018-06-11T17:49:56.647Z,18.87
2018-06-11T17:52:24.952Z,15.73
2018-06-11T17:54:53.357Z,15.27
2018-06-11T17:57:21.721Z,18.37
2018-06-11T17:59:50.006Z,19.67
2018-06-11T18:02:18.377Z,13.07
2018-06-11T18:04:46.782Z,16.23
2018-06-11T18:07:15.027Z,16.00
2018-06-11T18:09:43.336Z,16.73
2018-06-11T18:12:11.611Z,17.00
2018-06-11T18:14:39.936Z,14.77
2018-06-11T18:17:08.212Z,15.93
2018-06-11T18:19:36.492Z,16.13
2018-06-11T18:22:04.868Z,14.17
2018-06-11T18:24:33.188Z,18.17
2018-06-11T18:27:01.550Z,20.17
2018-06-11T18:29:29.892Z,14.50
2018-06-11T18:31:58.185Z,12.40
2018-06-11T18:34:29.446Z,18.27
2018-06-11T18:36:57.789Z,12.27
2018-06-11T18:39:26.105Z,13.23
2018-06-11T18:41:54.436Z,13.97
2018-06-11T18:44:22.740Z,14.73
2018-06-11T18:46:51.016Z,11.77
2018-06-11T18:49:19.316Z,13.67
2018-06-11T18:51:47.605Z,10.97
2018-06-11T18:54:15.890Z,8.07
2018-06-11T18:56:44.204Z,11.40
2018-06-11T18:59:12.537Z,9.37
2018-06-11T19:01:40.845Z,12.13
2018-06-11T19:04:09.165Z,10.37
2018-06-11T19:06:37.479Z,9.83
2018-06-11T19:09:07.726Z,6.53
2018-06-11T19:11:36.037Z,7.43
2018-06-11T19:14:04.354Z,12.07
2018-06-11T19:16:32.660Z,6.50
2018-06-11T19:19:00.965Z,9.30
2018-06-11T19:21:29.265Z,8.10
2018-06-11T19:23:57.589Z,12.57
2018-06-11T19:26:25.859Z,10.40
2018-06-11T19:28:54.156Z,9.77
2018-06-11T19:31:22.457Z,10.00
2018-06-11T19:33:53.701Z,10.77
2018-06-11T19:36:22.094Z,11.50
2018-06-11T19:38:50.408Z,9.63
2018-06-11T19:41:18.809Z,8.43
2018-06-11T19:43:47.447Z,11.33
2018-06-11T19:46:15.723Z,10.57
2018-06-11T19:48:44.034Z,9.50
2018-06-11T19:51:12.358Z,10.30
2018-06-11T19:53:40.642Z,8.00
2018-06-11T19:56:08.923Z,8.33
2018-06-11T19:58:37.262Z,9.80
2018-06-11T20:01:05.617Z,8.17
2018-06-11T20:03:33.932Z,10.07
2018-06-11T20:06:02.266Z,9.57
2018-06-11T20:08:30.577Z,10.13
2018-06-11T20:10:58.614Z,9.57
2018-06-11T20:13:26.918Z,9.30
2018-06-11T20:15:55.226Z,11.97
2018-06-11T20:18:23.513Z,9.33
2018-06-11T20:20:51.792Z,11.00
2018-06-11T20:23:20.095Z,10.30
2018-06-11T20:25:48.424Z,9.73
2018-06-11T20:28:16.714Z,7.70
2018-06-11T20:30:45.022Z,12.63
2018-06-11T20:33:13.335Z,8.57
2018-06-11T20:35:41.625Z,13.20
2018-06-11T20:38:09.936Z,10.90
2018-06-11T20:40:38.225Z,8.63
2018-06-11T20:43:06.546Z,9.97
2018-06-11T20:45:34.574Z,10.10
2018-06-11T20:48:02.897Z,11.53
2018-06-11T20:50:31.234Z,9.13
2018-06-11T20:52:59.526Z,8.70
2018-06-11T20:55:27.819Z,8.93
2018-06-11T20:57:56.184Z,10.93
2018-06-11T21:00:24.778Z,11.30
2018-06-11T21:02:53.079Z,8.93
2018-06-11T21:05:22.033Z,8.93
2018-06-11T21:07:50.374Z,9.10
2018-06-11T21:10:18.671Z,8.53
2018-06-11T21:12:47.001Z,12.03
2018-06-11T21:15:15.328Z,11.40
2018-06-11T21:17:43.647Z,10.60
2018-06-11T21:20:11.926Z,12.43
2018-06-11T21:22:40.245Z,8.87
2018-06-11T21:25:08.577Z,10.03
2018-06-11T21:27:36.906Z,12.03
2018-06-11T21:30:05.272Z,12.33
2018-06-11T21:32:33.620Z,12.13
2018-06-11T21:35:01.676Z,9.90
2018-06-11T21:37:30.026Z,11.03
2018-06-11T21:39:58.298Z,11.80
2018-06-11T21:42:26.631Z,11.10
2018-06-11T21:44:54.914Z,8.40
2018-06-11T21:47:23.185Z,12.83
2018-06-11T21:49:51.518Z,10.60
2018-06-11T21:52:19.830Z,11.20
2018-06-11T21:54:48.133Z,9.50
2018-06-11T21:57:16.485Z,10.97
2018-06-11T21:59:44.791Z,9.53
2018-06-11T22:02:13.075Z,11.17
2018-06-11T22:04:41.363Z,8.00
2018-06-11T22:07:09.658Z,9.50
2018-06-11T22:09:37.934Z,8.77
2018-06-11T22:12:06.255Z,16.63
2018-06-11T22:14:34.547Z,12.10
2018-06-11T22:17:02.867Z,11.47
2018-06-11T22:19:31.151Z,11.50
2018-06-11T22:21:59.465Z,8.77
2018-06-11T22:24:27.790Z,9.27
2018-06-11T22:26:56.093Z,8.17
2018-06-11T22:29:24.387Z,12.40
2018-06-11T22:31:52.713Z,9.57
2018-06-11T22:34:21.005Z,9.37
2018-06-11T22:36:49.283Z,9.60
2018-06-11T22:39:17.585Z,10.43
2018-06-11T22:41:45.602Z,9.27
2018-06-11T22:44:13.890Z,9.30
2018-06-11T22:46:42.183Z,13.83
2018-06-11T22:49:10.469Z,7.23
2018-06-11T22:51:38.803Z,9.23
2018-06-11T22:54:07.120Z,9.00
2018-06-11T22:56:35.393Z,8.10
2018-06-11T22:59:03.693Z,9.60
2018-06-11T23:01:32.054Z,8.77
2018-06-11T23:04:00.349Z,8.00
2018-06-11T23:06:28.379Z,8.33
2018-06-11T23:08:56.681Z,6.53
2018-06-11T23:11:24.972Z,8.33
2018-06-11T23:13:53.250Z,8.87
2018-06-11T23:16:21.596Z,8.73
2018-06-11T23:18:49.978Z,9.27
2018-06-11T23:21:18.319Z,7.27
2018-06-11T23:23:46.312Z,8.93
2018-06-11T23:26:14.598Z,8.03
2018-06-11T23:28:42.899Z,6.00
2018-06-11T23:31:11.180Z,9.27
2018-06-11T23:33:39.487Z,8.80
2018-06-11T23:36:07.776Z,9.77
2018-06-11T23:38:36.075Z,7.90
2018-06-11T23:41:04.397Z,7.47
2018-06-11T23:43:32.813Z,7.73
2018-06-11T23:46:01.110Z,8.03
2018-06-11T23:48:29.420Z,7.43
2018-06-11T23:50:57.760Z,8.87
2018-06-11T23:53:26.067Z,8.57
2018-06-11T23:55:54.393Z,8.20
2018-06-11T23:58:22.706Z,6.30
